createdAt,value
2024-01-17T00:00:38.800Z,92921.78
2024-01-17T00:03:05.401Z,92910.41
2024-01-17T00:05:31.921Z,92908.59
2024-01-17T00:07:58.522Z,92906.31
2024-01-17T00:10:25.555Z,92901.22
2024-01-17T00:12:52.109Z,92896.59
2024-01-17T00:15:21.248Z,92894.31
2024-01-17T00:17:50.891Z,92893.16
2024-01-17T00:20:18.147Z,92901.97
2024-01-17T00:22:45.544Z,92891.16
2024-01-17T00:25:12.240Z,92882.88
2024-01-17T00:27:39.533Z,92893.66
2024-01-17T00:30:07.624Z,92896.59
2024-01-17T00:32:35.705Z,92892.28
2024-01-17T00:35:03.857Z,92883.34
2024-01-17T00:37:30.669Z,92880.03
2024-01-17T00:39:57.182Z,92879.66
2024-01-17T00:42:23.623Z,92881.50
2024-01-17T00:44:50.101Z,92871.31
2024-01-17T00:47:16.564Z,92866.03
2024-01-17T00:49:43.106Z,92868.09
2024-01-17T00:52:11.028Z,92869.22
2024-01-17T00:54:37.530Z,92869.78
2024-01-17T00:57:04.902Z,92871.09
2024-01-17T00:59:31.797Z,92871.94
2024-01-17T01:01:58.478Z,92864.38
2024-01-17T01:04:24.940Z,92866.50
2024-01-17T01:06:51.411Z,92857.19
2024-01-17T01:09:17.956Z,92843.75
2024-01-17T01:11:44.600Z,92837.19
2024-01-17T01:14:11.150Z,92842.34
2024-01-17T01:16:37.590Z,92851.06
2024-01-17T01:19:05.848Z,92834.81
2024-01-17T01:21:32.634Z,92832.34
2024-01-17T01:23:59.362Z,92838.25
2024-01-17T01:26:25.940Z,92836.00
2024-01-17T01:28:52.438Z,92842.19
2024-01-17T01:31:18.993Z,92842.72
2024-01-17T01:33:45.566Z,92840.72
2024-01-17T01:36:12.178Z,92844.09
2024-01-17T01:38:38.679Z,92841.84
2024-01-17T01:41:05.200Z,92837.28
2024-01-17T01:43:31.847Z,92843.47
2024-01-17T01:46:11.693Z,92834.31
2024-01-17T01:48:39.015Z,92821.59
2024-01-17T01:51:05.761Z,92819.63
2024-01-17T01:53:33.968Z,92820.16
2024-01-17T01:56:01.423Z,92811.03
2024-01-17T01:58:30.696Z,92807.00
2024-01-17T02:00:57.988Z,92802.72
2024-01-17T02:03:25.584Z,92799.97
2024-01-17T02:05:52.264Z,92789.81
2024-01-17T02:08:19.144Z,92799.03
2024-01-17T02:10:45.639Z,92793.50
2024-01-17T02:13:12.586Z,92787.44
2024-01-17T02:15:39.103Z,92784.66
2024-01-17T02:18:06.271Z,92779.59
2024-01-17T02:20:33.297Z,92774.78
2024-01-17T02:22:59.930Z,92759.75
2024-01-17T02:25:26.469Z,92762.56
2024-01-17T02:27:52.960Z,92758.00
2024-01-17T02:30:19.586Z,92755.97
2024-01-17T02:32:46.724Z,92750.34
2024-01-17T02:35:13.583Z,92743.22
2024-01-17T02:37:40.031Z,92725.38
2024-01-17T02:40:06.787Z,92721.56
2024-01-17T02:42:33.257Z,92716.47
2024-01-17T02:44:59.803Z,92721.59
2024-01-17T02:47:26.470Z,92729.53
2024-01-17T02:49:53.266Z,92724.72
2024-01-17T02:52:19.789Z,92726.50
2024-01-17T02:54:46.309Z,92717.84
2024-01-17T02:57:12.936Z,92725.22
2024-01-17T02:59:39.502Z,92721.41
2024-01-17T03:02:06.106Z,92706.13
2024-01-17T03:04:32.693Z,92712.50
2024-01-17T03:06:59.390Z,92704.34
2024-01-17T03:09:26.365Z,92693.66
2024-01-17T03:11:53.246Z,92700.78
2024-01-17T03:14:19.768Z,92688.53
2024-01-17T03:16:46.347Z,92683.66
2024-01-17T03:19:15.439Z,92678.56
2024-01-17T03:21:47.619Z,92677.06
2024-01-17T03:24:14.388Z,92671.19
2024-01-17T03:26:41.166Z,92664.28
2024-01-17T03:29:07.723Z,92660.69
2024-01-17T03:31:34.303Z,92667.28
2024-01-17T03:34:00.927Z,92662.94
2024-01-17T03:36:27.620Z,92657.34
2024-01-17T03:38:55.886Z,92650.16
2024-01-17T03:41:22.953Z,92654.50
2024-01-17T03:43:51.390Z,92653.44
2024-01-17T03:46:17.862Z,92648.59
2024-01-17T03:48:44.507Z,92650.41
2024-01-17T03:51:11.200Z,92642.78
2024-01-17T03:53:37.957Z,92638.22
2024-01-17T03:56:04.702Z,92642.56
2024-01-17T03:58:34.049Z,92640.31
2024-01-17T04:01:02.809Z,92637.25
2024-01-17T04:03:29.463Z,92642.66
2024-01-17T04:05:56.024Z,92650.31
2024-01-17T04:08:22.532Z,92645.50
2024-01-17T04:10:48.985Z,92650.09
2024-01-17T04:13:15.559Z,92648.59
2024-01-17T04:15:43.600Z,92645.81
2024-01-17T04:18:10.241Z,92625.66
2024-01-17T04:20:36.933Z,92619.53
2024-01-17T04:23:10.197Z,92623.63
2024-01-17T04:25:37.012Z,92615.44
2024-01-17T04:28:07.451Z,92614.91
2024-01-17T04:30:34.742Z,92620.53
2024-01-17T04:33:02.216Z,92618.19
2024-01-17T04:35:28.774Z,92612.81
2024-01-17T04:37:55.220Z,92595.16
2024-01-17T04:40:21.880Z,92587.97
2024-01-17T04:42:50.059Z,92576.97
2024-01-17T04:45:19.869Z,92563.09
2024-01-17T04:47:46.514Z,92568.16
2024-01-17T04:50:13.799Z,92553.31
2024-01-17T04:52:41.096Z,92540.97
2024-01-17T04:55:10.377Z,92541.19
2024-01-17T04:57:36.843Z,92531.19
2024-01-17T05:00:05.748Z,92528.56
2024-01-17T05:02:32.303Z,92521.34
2024-01-17T05:04:58.811Z,92518.75
2024-01-17T05:07:25.471Z,92518.19
2024-01-17T05:09:51.941Z,92516.88
2024-01-17T05:12:18.481Z,92513.94
2024-01-17T05:14:44.953Z,92506.75
2024-01-17T05:17:11.580Z,92503.84
2024-01-17T05:19:39.115Z,92488.19
2024-01-17T05:22:05.659Z,92484.78
2024-01-17T05:24:33.291Z,92472.69
2024-01-17T05:27:00.386Z,92464.22
2024-01-17T05:29:26.956Z,92465.94
2024-01-17T05:31:53.598Z,92451.28
2024-01-17T05:34:20.066Z,92442.75
2024-01-17T05:36:46.569Z,92448.13
2024-01-17T05:39:13.664Z,92443.22
2024-01-17T05:41:40.337Z,92436.78
2024-01-17T05:44:06.780Z,92430.06
2024-01-17T05:46:34.187Z,92431.81
2024-01-17T05:49:00.763Z,92431.25
2024-01-17T05:51:27.464Z,92439.66
2024-01-17T05:53:54.005Z,92435.28
2024-01-17T05:56:20.510Z,92433.22
2024-01-17T05:58:46.968Z,92430.16
2024-01-17T06:01:13.472Z,92423.50
2024-01-17T06:03:40.049Z,92431.25
2024-01-17T06:06:06.733Z,92432.41
2024-01-17T06:08:33.225Z,92431.50
2024-01-17T06:10:59.913Z,92421.91
2024-01-17T06:13:26.532Z,92434.78
2024-01-17T06:15:53.002Z,92433.84
2024-01-17T06:18:19.565Z,92426.22
2024-01-17T06:20:46.113Z,92422.16
2024-01-17T06:23:12.681Z,92418.13
2024-01-17T06:25:39.113Z,92412.28
2024-01-17T06:28:05.710Z,92417.19
2024-01-17T06:30:32.214Z,92404.22
2024-01-17T06:32:58.794Z,92409.09
2024-01-17T06:35:25.300Z,92397.34
2024-01-17T06:37:51.746Z,92400.94
2024-01-17T06:40:18.176Z,92389.16
2024-01-17T06:42:44.649Z,92389.94
2024-01-17T06:45:12.023Z,92382.50
2024-01-17T06:47:39.117Z,92385.84
2024-01-17T06:50:06.073Z,92378.94
2024-01-17T06:52:32.627Z,92370.75
2024-01-17T06:54:59.100Z,92365.63
2024-01-17T06:57:25.537Z,92376.38
2024-01-17T06:59:52.290Z,92367.16
2024-01-17T07:02:18.785Z,92365.34
2024-01-17T07:04:45.402Z,92358.19
2024-01-17T07:07:11.895Z,92352.25
2024-01-17T07:09:38.399Z,92349.41
2024-01-17T07:12:06.622Z,92348.09
2024-01-17T07:14:33.286Z,92343.19
2024-01-17T07:16:59.800Z,92335.75
2024-01-17T07:19:26.326Z,92321.63
2024-01-17T07:21:52.787Z,92317.22
2024-01-17T07:24:20.048Z,92319.22
2024-01-17T07:26:46.586Z,92318.13
2024-01-17T07:29:13.092Z,92308.06
2024-01-17T07:31:39.974Z,92311.88
2024-01-17T07:34:06.728Z,92292.38
2024-01-17T07:36:33.283Z,92285.72
2024-01-17T07:38:59.827Z,92283.09
2024-01-17T07:41:26.435Z,92287.66
2024-01-17T07:43:52.922Z,92286.56
2024-01-17T07:46:19.479Z,92286.00
2024-01-17T07:48:46.263Z,92282.44
2024-01-17T07:51:14.607Z,92263.97
2024-01-17T07:53:41.146Z,92263.97
2024-01-17T07:56:07.642Z,92274.44
2024-01-17T07:58:34.096Z,92269.06
2024-01-17T08:01:00.820Z,92265.91
2024-01-17T08:03:31.069Z,92267.94
2024-01-17T08:05:58.263Z,92265.38
2024-01-17T08:08:24.852Z,92267.94
2024-01-17T08:10:51.389Z,92263.78
2024-01-17T08:13:18.463Z,92254.28
2024-01-17T08:15:44.961Z,92256.84
2024-01-17T08:18:12.202Z,92261.44
2024-01-17T08:20:39.813Z,92260.13
2024-01-17T08:23:07.003Z,92262.13
2024-01-17T08:25:33.529Z,92254.69
2024-01-17T08:28:00.765Z,92247.78
2024-01-17T08:30:27.991Z,92250.81
2024-01-17T08:32:55.032Z,92249.78
2024-01-17T08:35:21.633Z,92248.72
2024-01-17T08:37:48.240Z,92232.78
2024-01-17T08:40:14.859Z,92235.09
2024-01-17T08:42:44.888Z,92230.72
2024-01-17T08:45:12.121Z,92234.03
2024-01-17T08:47:39.551Z,92222.53
2024-01-17T08:50:07.763Z,92216.75
2024-01-17T08:52:34.724Z,92222.56
2024-01-17T08:55:03.525Z,92212.81
2024-01-17T08:57:30.003Z,92202.25
2024-01-17T08:59:56.565Z,92207.59
2024-01-17T09:02:23.084Z,92200.56
2024-01-17T09:04:49.571Z,92191.25
2024-01-17T09:07:16.117Z,92180.72
2024-01-17T09:09:42.694Z,92177.78
2024-01-17T09:12:09.892Z,92165.63
2024-01-17T09:14:36.495Z,92157.84
2024-01-17T09:17:05.061Z,92144.16
2024-01-17T09:19:33.368Z,92130.19
2024-01-17T09:22:00.137Z,92119.34
2024-01-17T09:24:26.675Z,92119.72
2024-01-17T09:26:53.791Z,92118.13
2024-01-17T09:29:20.875Z,92102.97
2024-01-17T09:31:49.202Z,92099.06
2024-01-17T09:34:16.316Z,92102.09
2024-01-17T09:36:43.047Z,92100.03
2024-01-17T09:39:09.706Z,92102.75
2024-01-17T09:41:36.419Z,92104.19
2024-01-17T09:44:04.244Z,92102.69
2024-01-17T09:46:35.672Z,92102.84
2024-01-17T09:49:04.632Z,92100.78
2024-01-17T09:51:34.077Z,92087.44
2024-01-17T09:54:05.741Z,92098.78
2024-01-17T09:56:33.791Z,92087.75
2024-01-17T09:59:15.125Z,92085.75
2024-01-17T10:01:42.437Z,92084.72
2024-01-17T10:04:12.542Z,92072.63
2024-01-17T10:06:41.091Z,92073.94
2024-01-17T10:09:08.760Z,92066.75
2024-01-17T10:11:35.488Z,92063.97
2024-01-17T10:14:02.340Z,92063.03
2024-01-17T10:16:32.378Z,92058.47
2024-01-17T10:19:01.193Z,92058.31
2024-01-17T10:21:27.723Z,92052.97
2024-01-17T10:23:55.386Z,92045.28
2024-01-17T10:26:22.432Z,92036.53
2024-01-17T10:28:48.884Z,92023.97
2024-01-17T10:31:15.585Z,92016.00
2024-01-17T10:33:43.223Z,92020.38
2024-01-17T10:36:09.964Z,92004.53
2024-01-17T10:38:36.611Z,91997.09
2024-01-17T10:41:07.338Z,91997.84
2024-01-17T10:43:34.825Z,91987.28
2024-01-17T10:46:10.684Z,91983.69
2024-01-17T10:48:38.077Z,91969.81
2024-01-17T10:51:05.687Z,91963.16
2024-01-17T10:53:44.250Z,91963.91
2024-01-17T10:56:19.485Z,91959.25
2024-01-17T10:58:50.596Z,91965.13
2024-01-17T11:01:32.958Z,91952.00
2024-01-17T11:04:08.463Z,91947.75
2024-01-17T11:06:36.769Z,91945.81
2024-01-17T11:09:03.356Z,91940.88
2024-01-17T11:11:30.316Z,91932.00
2024-01-17T11:13:56.896Z,91933.97
2024-01-17T11:16:24.118Z,91912.84
2024-01-17T11:18:51.325Z,91919.50
2024-01-17T11:21:22.068Z,91907.72
2024-01-17T11:24:01.849Z,91899.44
2024-01-17T11:26:54.713Z,91898.22
2024-01-17T11:29:28.987Z,91895.94
2024-01-17T11:32:08.877Z,91895.38
2024-01-17T11:34:36.088Z,91894.28
2024-01-17T11:37:02.743Z,91887.34
2024-01-17T11:39:29.244Z,91889.16
2024-01-17T11:41:56.016Z,91888.88
2024-01-17T11:44:24.113Z,91882.97
2024-01-17T11:46:52.834Z,91880.88
2024-01-17T11:49:42.950Z,91872.28
2024-01-17T11:52:28.008Z,91879.88
2024-01-17T11:54:55.583Z,91868.84
2024-01-17T11:57:22.352Z,91861.00
2024-01-17T12:00:08.982Z,91854.97
2024-01-17T12:02:38.240Z,91864.19
2024-01-17T12:05:06.911Z,91857.72
2024-01-17T12:07:38.249Z,91852.13
2024-01-17T12:10:10.046Z,91840.63
2024-01-17T12:12:43.674Z,91842.44
2024-01-17T12:15:11.319Z,91830.03
2024-01-17T12:17:39.237Z,91821.00
2024-01-17T12:20:08.030Z,91813.44
2024-01-17T12:22:35.360Z,91809.22
2024-01-17T12:25:02.313Z,91804.56
2024-01-17T12:27:32.351Z,91798.81
2024-01-17T12:30:03.659Z,91796.13
2024-01-17T12:32:30.231Z,91788.69
2024-01-17T12:34:57.312Z,91790.34
2024-01-17T12:37:23.993Z,91778.88
2024-01-17T12:39:50.471Z,91776.13
2024-01-17T12:42:20.341Z,91776.31
2024-01-17T12:44:47.685Z,91765.44
2024-01-17T12:47:14.506Z,91764.66
2024-01-17T12:49:41.079Z,91763.75
2024-01-17T12:52:07.629Z,91749.88
2024-01-17T12:54:34.305Z,91740.81
2024-01-17T12:57:02.485Z,91738.25
2024-01-17T12:59:29.056Z,91740.84
2024-01-17T13:01:58.705Z,91733.88
2024-01-17T13:04:25.607Z,91741.13
2024-01-17T13:06:58.471Z,91732.06
2024-01-17T13:09:31.071Z,91733.41
2024-01-17T13:11:57.991Z,91724.03
2024-01-17T13:14:25.598Z,91717.66
2024-01-17T13:16:52.620Z,91704.19
2024-01-17T13:19:20.716Z,91706.13
2024-01-17T13:21:51.026Z,91699.13
2024-01-17T13:24:17.897Z,91696.38
2024-01-17T13:26:45.488Z,91687.56
2024-01-17T13:29:14.200Z,91689.91
2024-01-17T13:31:42.540Z,91683.44
2024-01-17T13:34:09.380Z,91672.31
2024-01-17T13:36:36.225Z,91678.59
2024-01-17T13:39:04.402Z,91681.41
2024-01-17T13:41:32.779Z,91671.47
2024-01-17T13:43:59.341Z,91666.75
2024-01-17T13:46:27.436Z,91676.00
2024-01-17T13:48:54.674Z,91658.75
2024-01-17T13:51:23.760Z,91659.44
2024-01-17T13:53:54.580Z,91664.53
2024-01-17T13:56:21.431Z,91657.56
2024-01-17T13:58:47.933Z,91652.50
2024-01-17T14:01:19.535Z,91653.88
2024-01-17T14:03:47.142Z,91653.75
2024-01-17T14:06:15.652Z,91664.59
2024-01-17T14:08:42.553Z,91654.59
2024-01-17T14:11:12.571Z,91656.31
2024-01-17T14:13:39.268Z,91650.50
2024-01-17T14:16:05.833Z,91655.69
2024-01-17T14:18:32.312Z,91647.59
2024-01-17T14:20:58.816Z,91659.88
2024-01-17T14:23:25.393Z,91637.84
2024-01-17T14:25:51.886Z,91638.94
2024-01-17T14:28:18.417Z,91632.69
2024-01-17T14:30:44.868Z,91641.31
2024-01-17T14:33:11.497Z,91638.09
2024-01-17T14:35:39.291Z,91642.59
2024-01-17T14:38:06.165Z,91631.66
2024-01-17T14:40:32.719Z,91638.75
2024-01-17T14:42:59.365Z,91642.72
2024-01-17T14:45:25.968Z,91622.72
2024-01-17T14:47:52.660Z,91613.03
2024-01-17T14:50:19.225Z,91626.28
2024-01-17T14:52:46.648Z,91623.88
2024-01-17T14:55:13.387Z,91612.81
2024-01-17T14:57:39.981Z,91620.88
2024-01-17T15:00:08.046Z,91598.84
2024-01-17T15:02:34.922Z,91606.69
2024-01-17T15:05:01.582Z,91604.56
2024-01-17T15:07:30.187Z,91594.34
2024-01-17T15:09:57.048Z,91602.53
2024-01-17T15:12:23.968Z,91612.53
2024-01-17T15:14:50.499Z,91595.44
2024-01-17T15:17:17.059Z,91593.16
2024-01-17T15:19:43.582Z,91587.44
2024-01-17T15:22:10.107Z,91591.41
2024-01-17T15:24:36.548Z,91586.59
2024-01-17T15:27:03.375Z,91591.28
2024-01-17T15:29:30.512Z,91590.44
2024-01-17T15:31:57.189Z,91580.44
2024-01-17T15:34:23.699Z,91580.31
2024-01-17T15:36:50.665Z,91580.63
2024-01-17T15:39:20.429Z,91572.47
2024-01-17T15:41:47.251Z,91579.13
2024-01-17T15:44:13.856Z,91578.38
2024-01-17T15:46:40.336Z,91583.84
2024-01-17T15:49:06.880Z,91583.41
2024-01-17T15:51:33.558Z,91587.06
2024-01-17T15:54:00.017Z,91595.53
2024-01-17T15:56:26.726Z,91593.72
2024-01-17T15:58:53.288Z,91590.84
2024-01-17T16:01:20.177Z,91590.09
2024-01-17T16:03:47.459Z,91585.78
2024-01-17T16:06:14.161Z,91581.09
2024-01-17T16:08:40.771Z,91581.94
2024-01-17T16:11:08.018Z,91590.56
2024-01-17T16:13:37.493Z,91586.91
2024-01-17T16:16:14.831Z,91591.13
2024-01-17T16:18:45.371Z,91596.72
2024-01-17T16:21:13.522Z,91599.28
2024-01-17T16:23:45.022Z,91608.00
2024-01-17T16:26:12.431Z,91589.75
2024-01-17T16:28:40.401Z,91599.13
2024-01-17T16:31:10.099Z,91595.56
2024-01-17T16:33:37.486Z,91606.13
2024-01-17T16:36:05.168Z,91596.25
2024-01-17T16:38:31.858Z,91589.78
2024-01-17T16:40:58.651Z,91600.97
2024-01-17T16:43:25.192Z,91582.28
2024-01-17T16:45:53.916Z,91588.41
2024-01-17T16:48:20.639Z,91580.13
2024-01-17T16:50:47.267Z,91580.78
2024-01-17T16:53:15.209Z,91583.63
2024-01-17T16:55:41.826Z,91580.94
2024-01-17T16:58:08.312Z,91579.53
2024-01-17T17:00:34.964Z,91582.53
2024-01-17T17:03:01.602Z,91582.75
2024-01-17T17:05:28.180Z,91587.25
2024-01-17T17:07:54.980Z,91584.88
2024-01-17T17:10:22.810Z,91584.25
2024-01-17T17:12:49.302Z,91585.66
2024-01-17T17:15:15.789Z,91577.25
2024-01-17T17:17:42.603Z,91581.31
2024-01-17T17:20:10.095Z,91583.16
2024-01-17T17:22:38.442Z,91587.00
2024-01-17T17:25:06.624Z,91587.44
2024-01-17T17:27:33.269Z,91573.03
2024-01-17T17:29:59.977Z,91593.69
2024-01-17T17:32:26.631Z,91590.69
2024-01-17T17:34:54.185Z,91583.38
2024-01-17T17:37:22.773Z,91588.53
2024-01-17T17:39:49.355Z,91570.09
2024-01-17T17:42:15.970Z,91587.44
2024-01-17T17:44:42.620Z,91586.06
2024-01-17T17:47:10.685Z,91599.72
2024-01-17T17:49:38.723Z,91581.50
2024-01-17T17:52:05.757Z,91576.84
2024-01-17T17:54:32.532Z,91579.44
2024-01-17T17:57:00.690Z,91579.44
2024-01-17T17:59:27.425Z,91561.03
2024-01-17T18:01:54.125Z,91567.47
2024-01-17T18:04:25.380Z,91571.25
2024-01-17T18:06:52.685Z,91562.81
2024-01-17T18:09:19.445Z,91556.91
2024-01-17T18:11:46.096Z,91563.78
2024-01-17T18:14:12.769Z,91572.72
2024-01-17T18:16:39.232Z,91563.19
2024-01-17T18:19:06.049Z,91567.72
2024-01-17T18:21:36.365Z,91549.38
2024-01-17T18:24:02.830Z,91557.34
2024-01-17T18:26:29.286Z,91568.44
2024-01-17T18:28:55.721Z,91566.69
2024-01-17T18:31:22.169Z,91567.19
2024-01-17T18:33:48.836Z,91558.78
2024-01-17T18:36:15.459Z,91559.63
2024-01-17T18:38:41.995Z,91564.81
2024-01-17T18:41:09.270Z,91553.34
2024-01-17T18:43:38.025Z,91551.63
2024-01-17T18:46:05.600Z,91551.69
2024-01-17T18:48:32.215Z,91554.63
2024-01-17T18:50:59.485Z,91536.94
2024-01-17T18:53:25.993Z,91545.84
2024-01-17T18:55:53.862Z,91549.22
2024-01-17T18:58:20.307Z,91554.78
2024-01-17T19:00:46.935Z,91547.53
2024-01-17T19:03:13.639Z,91539.47
2024-01-17T19:05:40.238Z,91524.59
2024-01-17T19:08:07.496Z,91534.44
2024-01-17T19:10:33.971Z,91543.06
2024-01-17T19:13:00.766Z,91537.53
2024-01-17T19:15:29.269Z,91538.63
2024-01-17T19:17:56.889Z,91544.31
2024-01-17T19:20:23.541Z,91548.06
2024-01-17T19:22:50.381Z,91545.81
2024-01-17T19:25:19.672Z,91549.50
2024-01-17T19:27:47.343Z,91556.56
2024-01-17T19:30:16.975Z,91562.84
2024-01-17T19:32:44.763Z,91550.00
2024-01-17T19:35:13.341Z,91547.06
2024-01-17T19:37:44.544Z,91544.56
2024-01-17T19:40:12.185Z,91540.88
2024-01-17T19:42:39.085Z,91534.28
2024-01-17T19:45:06.336Z,91536.53
2024-01-17T19:47:32.849Z,91528.44
2024-01-17T19:49:59.591Z,91527.34
2024-01-17T19:52:26.642Z,91530.78
2024-01-17T19:54:53.111Z,91526.78
2024-01-17T19:57:19.983Z,91530.84
2024-01-17T19:59:46.640Z,91532.00
2024-01-17T20:02:13.106Z,91537.69
2024-01-17T20:04:39.788Z,91543.22
2024-01-17T20:07:06.874Z,91559.84
2024-01-17T20:09:33.728Z,91559.09
2024-01-17T20:12:01.295Z,91562.13
2024-01-17T20:14:28.294Z,91568.63
2024-01-17T20:16:54.944Z,91571.63
2024-01-17T20:19:21.803Z,91573.47
2024-01-17T20:21:51.140Z,91573.06
2024-01-17T20:24:18.055Z,91584.84
2024-01-17T20:26:44.882Z,91584.84
2024-01-17T20:29:12.211Z,91582.50
2024-01-17T20:31:39.556Z,91595.09
2024-01-17T20:34:07.233Z,91586.66
2024-01-17T20:36:34.124Z,91593.28
2024-01-17T20:39:00.723Z,91595.53
2024-01-17T20:41:27.236Z,91607.72
2024-01-17T20:43:53.811Z,91586.25
2024-01-17T20:46:20.382Z,91587.78
2024-01-17T20:48:47.205Z,91598.13
2024-01-17T20:51:26.699Z,91592.94
2024-01-17T20:53:53.962Z,91584.44
2024-01-17T20:56:22.268Z,91594.34
2024-01-17T20:58:49.484Z,91583.00
2024-01-17T21:01:16.137Z,91591.59
2024-01-17T21:03:42.819Z,91592.69
2024-01-17T21:06:09.485Z,91587.16
2024-01-17T21:08:36.039Z,91586.00
2024-01-17T21:11:02.490Z,91587.84
2024-01-17T21:13:28.929Z,91584.84
2024-01-17T21:15:55.667Z,91585.19
2024-01-17T21:18:22.368Z,91590.78
2024-01-17T21:20:49.140Z,91585.59
2024-01-17T21:23:17.580Z,91583.41
2024-01-17T21:25:44.325Z,91579.66
2024-01-17T21:28:10.843Z,91572.22
2024-01-17T21:30:37.448Z,91580.50
2024-01-17T21:33:04.566Z,91587.84
2024-01-17T21:35:31.494Z,91580.72
2024-01-17T21:37:57.983Z,91588.50
2024-01-17T21:40:24.407Z,91604.13
2024-01-17T21:42:50.936Z,91589.00
2024-01-17T21:45:17.407Z,91588.34
2024-01-17T21:47:43.923Z,91583.50
2024-01-17T21:50:11.080Z,91590.50
2024-01-17T21:52:37.825Z,91590.94
2024-01-17T21:55:04.591Z,91594.19
2024-01-17T21:57:31.211Z,91594.84
2024-01-17T21:59:57.806Z,91589.91
2024-01-17T22:02:24.358Z,91600.38
2024-01-17T22:04:50.943Z,91611.91
2024-01-17T22:07:17.663Z,91600.13
2024-01-17T22:09:44.374Z,91598.69
2024-01-17T22:12:10.908Z,91606.81
2024-01-17T22:14:37.441Z,91595.59
2024-01-17T22:17:04.120Z,91613.56
2024-01-17T22:19:30.704Z,91613.94
2024-01-17T22:21:57.164Z,91622.94
2024-01-17T22:24:23.709Z,91615.09
2024-01-17T22:26:50.285Z,91616.94
2024-01-17T22:29:16.852Z,91621.34
2024-01-17T22:31:43.352Z,91629.88
2024-01-17T22:34:09.941Z,91634.72
2024-01-17T22:36:36.670Z,91630.28
2024-01-17T22:39:03.437Z,91628.13
2024-01-17T22:41:30.238Z,91628.13
2024-01-17T22:43:57.190Z,91627.03
2024-01-17T22:46:23.731Z,91628.56
2024-01-17T22:48:50.406Z,91646.03
2024-01-17T22:51:18.068Z,91630.53
2024-01-17T22:53:44.658Z,91619.44
2024-01-17T22:56:14.490Z,91628.22
2024-01-17T22:58:43.014Z,91625.19
2024-01-17T23:01:09.517Z,91634.06
2024-01-17T23:03:36.087Z,91622.94
2024-01-17T23:06:03.337Z,91612.56
2024-01-17T23:08:29.874Z,91602.28
2024-01-17T23:10:57.944Z,91598.63
2024-01-17T23:13:29.382Z,91603.81
2024-01-17T23:15:57.345Z,91614.19
2024-01-17T23:18:23.943Z,91618.59
2024-01-17T23:20:50.467Z,91608.16
2024-01-17T23:23:16.933Z,91618.50
2024-01-17T23:25:43.396Z,91614.84
2024-01-17T23:28:09.875Z,91613.41
2024-01-17T23:30:36.494Z,91625.19
2024-01-17T23:33:03.681Z,91619.69
2024-01-17T23:35:30.214Z,91622.25
2024-01-17T23:37:56.672Z,91620.69
2024-01-17T23:40:23.135Z,91608.50
2024-01-17T23:42:49.796Z,91620.69
2024-01-17T23:45:16.476Z,91618.50
2024-01-17T23:47:43.007Z,91612.66
2024-01-17T23:50:10.886Z,91617.44
2024-01-17T23:52:37.451Z,91617.75
2024-01-17T23:55:04.269Z,91617.03
2024-01-17T23:57:30.945Z,91623.28
2024-01-17T23:59:57.436Z,91621.44
